Time;durP1;ratioP1;P1;durP2;ratioP2;P2;SDS_P1;SDS_P2;PMS_P1;PMS_P2;Temp;Humidity;BMP_temperature;BMP_pressure;BME280_temperature;BME280_humidity;BME280_pressure;Samples;Min_cycle;Max_cycle;Signal;HPM_P1;HPM_P2
2021/06/11 00:00:17;;;;;;;;;;;18.60;99.90;;;;;;5069469;28;19972;-76
2021/06/11 00:02:43;;;;;;;;;;;18.60;99.90;;;;;;5057186;28;19955;-76
2021/06/11 00:05:09;;;;;;;;;;;18.50;99.90;;;;;;5057439;28;19912;-76
2021/06/11 00:07:35;;;;;;;;;;;18.50;99.90;;;;;;5050297;28;19908;-76
2021/06/11 00:10:01;;;;;;;;;;;18.50;99.90;;;;;;5068221;28;19969;-76
2021/06/11 00:12:26;;;;;;;;;;;18.50;99.90;;;;;;5057336;28;19962;-76
2021/06/11 00:14:52;;;;;;;;;;;18.50;99.90;;;;;;5058593;28;19913;-76
2021/06/11 00:17:17;;;;;;;;;;;18.50;99.90;;;;;;5065629;28;19912;-76
2021/06/11 00:19:43;;;;;;;;;;;18.50;99.90;;;;;;5065638;28;20347;-76
2021/06/11 00:22:08;;;;;;;;;;;18.50;99.90;;;;;;5056620;28;19916;-76
2021/06/11 00:24:33;;;;;;;;;;;18.50;99.90;;;;;;5065980;28;19913;-76
2021/06/11 00:26:59;;;;;;;;;;;18.60;99.90;;;;;;5059168;28;19912;-76
2021/06/11 00:29:24;;;;;;;;;;;18.60;99.90;;;;;;5056628;28;20339;-75
2021/06/11 00:31:50;;;;;;;;;;;18.60;99.90;;;;;;5064802;28;20007;-76
2021/06/11 00:34:15;;;;;;;;;;;18.60;99.90;;;;;;5062072;28;19908;-76
2021/06/11 00:36:41;;;;;;;;;;;18.60;99.90;;;;;;5064718;28;19912;-76
2021/06/11 00:39:06;;;;;;;;;;;18.60;99.90;;;;;;5061295;28;20024;-75
2021/06/11 00:41:31;;;;;;;;;;;18.50;99.90;;;;;;5059141;28;19928;-76
2021/06/11 00:43:57;;;;;;;;;;;18.50;99.90;;;;;;5060968;28;19916;-76
2021/06/11 00:46:22;;;;;;;;;;;18.50;99.90;;;;;;5065476;28;19912;-76
2021/06/11 00:48:48;;;;;;;;;;;18.40;99.90;;;;;;5065838;28;19904;-76
2021/06/11 00:51:13;;;;;;;;;;;18.50;99.90;;;;;;5065680;28;19908;-76
2021/06/11 00:53:39;;;;;;;;;;;18.40;99.90;;;;;;5053231;28;19909;-75
2021/06/11 00:56:04;;;;;;;;;;;18.40;99.90;;;;;;5058536;28;19917;-76
2021/06/11 00:58:30;;;;;;;;;;;18.40;99.90;;;;;;5055569;28;19969;-77
2021/06/11 01:00:55;;;;;;;;;;;18.40;99.90;;;;;;5055803;28;20371;-77
2021/06/11 01:03:21;;;;;;;;;;;18.40;99.90;;;;;;5057466;28;20478;-77
2021/06/11 01:05:46;;;;;;;;;;;18.40;99.90;;;;;;5062559;28;19909;-76
2021/06/11 01:08:13;;;;;;;;;;;18.40;99.90;;;;;;5067722;28;20329;-77
2021/06/11 01:10:38;;;;;;;;;;;18.40;99.90;;;;;;5066493;28;19909;-77
2021/06/11 01:13:04;;;;;;;;;;;18.40;99.90;;;;;;5064529;28;19961;-77
2021/06/11 01:15:30;;;;;;;;;;;18.40;99.90;;;;;;5065088;28;19908;-77
2021/06/11 01:17:55;;;;;;;;;;;18.40;99.90;;;;;;5049174;28;20279;-76
2021/06/11 01:20:21;;;;;;;;;;;18.40;99.90;;;;;;5065930;28;19924;-76
2021/06/11 01:23:04;;;;;;;;;;;18.40;99.90;;;;;;5067990;28;19916;-76
2021/06/11 01:25:49;;;;;;;;;;;18.50;99.90;;;;;;5062243;28;19951;-77
2021/06/11 01:28:15;;;;;;;;;;;18.40;99.90;;;;;;5061401;28;20371;-77
2021/06/11 01:30:41;;;;;;;;;;;18.40;99.90;;;;;;5062965;28;20348;-77
2021/06/11 01:33:07;;;;;;;;;;;18.40;99.90;;;;;;5050679;28;19912;-77
2021/06/11 01:35:39;;;;;;;;;;;18.40;99.90;;;;;;5064076;28;19908;-77
2021/06/11 01:38:06;;;;;;;;;;;18.40;99.90;;;;;;5058685;28;19908;-76
2021/06/11 01:40:33;;;;;;;;;;;18.40;99.90;;;;;;5066565;28;20422;-77
2021/06/11 01:43:01;;;;;;;;;;;18.40;99.90;;;;;;5065343;28;20435;-76
2021/06/11 01:45:26;;;;;;;;;;;18.40;99.90;;;;;;5066132;28;19928;-76
2021/06/11 01:47:52;;;;;;;;;;;18.40;99.90;;;;;;5046692;28;19912;-77
2021/06/11 01:50:25;;;;;;;;;;;18.30;99.90;;;;;;5066152;28;19912;-76
2021/06/11 01:52:51;;;;;;;;;;;18.30;99.90;;;;;;5067709;28;19947;-76
2021/06/11 01:55:17;;;;;;;;;;;18.30;99.90;;;;;;5060675;28;20007;-76
2021/06/11 01:57:43;;;;;;;;;;;18.30;99.90;;;;;;5061721;28;20026;-77
2021/06/11 02:00:09;;;;;;;;;;;18.30;99.90;;;;;;5067107;28;19954;-77
2021/06/11 02:02:35;;;;;;;;;;;18.30;99.90;;;;;;5058474;28;20339;-77
2021/06/11 02:05:01;;;;;;;;;;;18.30;99.90;;;;;;5059641;28;19950;-76
2021/06/11 02:07:27;;;;;;;;;;;18.30;99.90;;;;;;5068695;28;19920;-77
2021/06/11 02:09:53;;;;;;;;;;;18.30;99.90;;;;;;5065781;28;20347;-77
2021/06/11 02:12:18;;;;;;;;;;;18.20;99.90;;;;;;5066271;28;19954;-77
2021/06/11 02:14:44;;;;;;;;;;;18.20;99.90;;;;;;5057697;28;19995;-76
2021/06/11 02:17:10;;;;;;;;;;;18.20;99.90;;;;;;5061360;28;19908;-77
2021/06/11 02:19:36;;;;;;;;;;;18.20;99.90;;;;;;5066479;28;19954;-76
2021/06/11 02:22:02;;;;;;;;;;;18.20;99.90;;;;;;5060254;28;20114;-77
2021/06/11 02:24:27;;;;;;;;;;;18.20;99.90;;;;;;5065072;28;19915;-76
2021/06/11 02:26:53;;;;;;;;;;;18.20;99.90;;;;;;5063964;28;20378;-76
2021/06/11 02:29:19;;;;;;;;;;;18.20;99.90;;;;;;5063375;28;19916;-77
2021/06/11 02:31:45;;;;;;;;;;;18.20;99.90;;;;;;5068472;28;19913;-77
2021/06/11 02:34:12;;;;;;;;;;;18.20;99.90;;;;;;5062513;28;19909;-77
2021/06/11 02:36:37;;;;;;;;;;;18.20;99.90;;;;;;5062821;28;19955;-77
2021/06/11 02:39:03;;;;;;;;;;;18.20;99.90;;;;;;5067183;28;19947;-76
2021/06/11 02:41:31;;;;;;;;;;;18.10;99.90;;;;;;5066640;28;19963;-76
2021/06/11 02:43:57;;;;;;;;;;;18.10;99.90;;;;;;5059641;28;20371;-76
2021/06/11 02:46:22;;;;;;;;;;;18.10;99.90;;;;;;5062166;28;20287;-76
2021/06/11 02:48:51;;;;;;;;;;;18.10;99.90;;;;;;5061144;28;19908;-76
2021/06/11 02:51:30;;;;;;;;;;;18.10;99.90;;;;;;5061773;28;19909;-76
2021/06/11 02:53:57;;;;;;;;;;;18.10;99.90;;;;;;5057777;28;19916;-76
2021/06/11 02:56:25;;;;;;;;;;;18.10;99.90;;;;;;5068467;28;19921;-76
2021/06/11 02:58:53;;;;;;;;;;;18.00;99.90;;;;;;5065711;28;20411;-76
2021/06/11 03:01:19;;;;;;;;;;;18.10;99.90;;;;;;5058172;28;19912;-76
2021/06/11 03:03:45;;;;;;;;;;;18.10;99.90;;;;;;5066929;28;19909;-77
2021/06/11 03:06:12;;;;;;;;;;;18.10;99.90;;;;;;5067153;28;20045;-76
2021/06/11 03:08:40;;;;;;;;;;;18.10;99.90;;;;;;5055447;28;19995;-77
2021/06/11 03:11:08;;;;;;;;;;;18.10;99.90;;;;;;5063753;28;19923;-77
2021/06/11 03:13:34;;;;;;;;;;;18.10;99.90;;;;;;5064624;28;19920;-77
2021/06/11 03:16:00;;;;;;;;;;;18.10;99.90;;;;;;5065799;28;20266;-76
2021/06/11 03:18:36;;;;;;;;;;;18.10;99.90;;;;;;5061754;28;19995;-77
2021/06/11 03:21:17;;;;;;;;;;;18.20;99.90;;;;;;5066007;28;19931;-76
2021/06/11 03:24:03;;;;;;;;;;;18.20;99.90;;;;;;5057099;28;19908;-76
2021/06/11 03:26:32;;;;;;;;;;;18.20;99.90;;;;;;5067545;28;19999;-76
2021/06/11 03:28:59;;;;;;;;;;;18.20;99.90;;;;;;5062475;28;19919;-76
2021/06/11 03:31:32;;;;;;;;;;;18.20;99.90;;;;;;5063295;28;19973;-76
2021/06/11 03:34:02;;;;;;;;;;;18.20;99.90;;;;;;5065196;28;19919;-76
2021/06/11 03:36:28;;;;;;;;;;;18.20;99.90;;;;;;5066457;28;19913;-76
2021/06/11 03:38:56;;;;;;;;;;;18.20;99.90;;;;;;5066956;28;20290;-77
2021/06/11 03:41:24;;;;;;;;;;;18.20;99.90;;;;;;5060999;28;19912;-76
2021/06/11 03:43:51;;;;;;;;;;;18.20;99.90;;;;;;5057457;28;19932;-76
2021/06/11 03:46:17;;;;;;;;;;;18.20;99.90;;;;;;5055236;28;19962;-76
2021/06/11 03:48:43;;;;;;;;;;;18.20;99.90;;;;;;5051975;28;19987;-77
2021/06/11 03:51:13;;;;;;;;;;;18.20;99.90;;;;;;5065188;28;19917;-76
2021/06/11 03:53:39;;;;;;;;;;;18.30;99.90;;;;;;5053947;28;20304;-76
2021/06/11 03:56:06;;;;;;;;;;;18.30;99.90;;;;;;5061528;28;20389;-76
2021/06/11 03:58:35;;;;;;;;;;;18.30;99.90;;;;;;5062528;28;19942;-77
2021/06/11 04:01:02;;;;;;;;;;;18.30;99.90;;;;;;5056444;28;20398;-76
2021/06/11 04:03:28;;;;;;;;;;;18.30;99.90;;;;;;5061392;28;19912;-76
2021/06/11 04:06:00;;;;;;;;;;;18.30;99.90;;;;;;5066179;28;19914;-76
2021/06/11 04:08:28;;;;;;;;;;;18.20;99.90;;;;;;5056692;28;20003;-76
2021/06/11 04:10:57;;;;;;;;;;;18.30;99.90;;;;;;5058770;28;19913;-76
2021/06/11 04:13:41;;;;;;;;;;;18.20;99.90;;;;;;5054745;28;19915;-76
2021/06/11 04:16:08;;;;;;;;;;;18.20;99.90;;;;;;5057740;28;20394;-77
2021/06/11 04:18:35;;;;;;;;;;;18.20;99.90;;;;;;5055833;28;19959;-77
2021/06/11 04:21:01;;;;;;;;;;;18.20;99.90;;;;;;5065363;28;19991;-77
2021/06/11 04:23:29;;;;;;;;;;;18.30;99.90;;;;;;5062909;28;19908;-77
2021/06/11 04:25:56;;;;;;;;;;;18.30;99.90;;;;;;5060398;28;19920;-77
2021/06/11 04:28:22;;;;;;;;;;;18.30;99.90;;;;;;5066705;28;20300;-77
2021/06/11 04:30:48;;;;;;;;;;;18.30;99.90;;;;;;5069090;28;20279;-77
2021/06/11 04:33:20;;;;;;;;;;;18.30;99.90;;;;;;5066045;28;19915;-77
2021/06/11 04:35:46;;;;;;;;;;;18.30;99.90;;;;;;5067049;28;19998;-77
2021/06/11 04:38:12;;;;;;;;;;;18.30;99.90;;;;;;5064582;28;19999;-77
2021/06/11 04:40:38;;;;;;;;;;;18.30;99.90;;;;;;5064599;28;19915;-77
2021/06/11 04:43:03;;;;;;;;;;;18.30;99.90;;;;;;5061516;28;20293;-77
2021/06/11 04:45:29;;;;;;;;;;;18.40;99.90;;;;;;5061293;28;19943;-77
2021/06/11 04:47:54;;;;;;;;;;;18.40;99.90;;;;;;5080970;28;19939;-77
2021/06/11 04:50:20;;;;;;;;;;;18.30;99.90;;;;;;5071681;28;19962;-76
2021/06/11 04:52:45;;;;;;;;;;;18.40;99.90;;;;;;5058540;28;20379;-82
2021/06/11 04:55:11;;;;;;;;;;;18.40;99.90;;;;;;5066405;28;19931;-80
2021/06/11 04:57:36;;;;;;;;;;;18.40;99.90;;;;;;5060370;28;19962;-78
2021/06/11 05:00:02;;;;;;;;;;;18.50;99.90;;;;;;5071934;28;19950;-78
2021/06/11 05:02:28;;;;;;;;;;;18.50;99.90;;;;;;5066504;28;19916;-78
2021/06/11 05:04:53;;;;;;;;;;;18.50;99.90;;;;;;5059746;28;19999;-81
2021/06/11 05:07:18;;;;;;;;;;;18.60;99.90;;;;;;5065082;28;19904;-81
2021/06/11 05:09:44;;;;;;;;;;;18.60;99.90;;;;;;5069823;28;19909;-79
2021/06/11 05:12:10;;;;;;;;;;;18.70;99.90;;;;;;5069159;28;19908;-79
2021/06/11 05:14:35;;;;;;;;;;;18.90;99.90;;;;;;5062945;28;19916;-85
2021/06/11 05:17:02;;;;;;;;;;;18.90;99.90;;;;;;5061138;28;19904;-75
2021/06/11 05:19:28;;;;;;;;;;;19.00;99.90;;;;;;5064710;28;19912;-74
2021/06/11 05:21:54;;;;;;;;;;;19.10;99.90;;;;;;5070569;28;20345;-77
2021/06/11 05:24:19;;;;;;;;;;;19.20;99.90;;;;;;5060987;28;19904;-76
2021/06/11 05:26:45;;;;;;;;;;;19.30;99.90;;;;;;5056087;28;19912;-76
2021/06/11 05:29:28;;;;;;;;;;;19.30;99.90;;;;;;5053811;28;19919;-76
2021/06/11 05:31:53;;;;;;;;;;;19.40;99.90;;;;;;5070681;28;19919;-76
2021/06/11 05:34:19;;;;;;;;;;;19.50;99.90;;;;;;5059317;28;19905;-76
2021/06/11 05:36:44;;;;;;;;;;;19.60;99.90;;;;;;5059578;28;20599;-76
2021/06/11 05:39:10;;;;;;;;;;;19.70;99.90;;;;;;5068081;28;19930;-76
2021/06/11 05:41:35;;;;;;;;;;;19.70;99.90;;;;;;5061364;28;19956;-76
2021/06/11 05:44:00;;;;;;;;;;;19.80;99.30;;;;;;5055044;28;19987;-76
2021/06/11 05:46:26;;;;;;;;;;;19.90;98.90;;;;;;5069568;28;19912;-76
2021/06/11 05:48:51;;;;;;;;;;;19.90;99.10;;;;;;5065036;28;20398;-76
2021/06/11 05:51:17;;;;;;;;;;;20.00;97.30;;;;;;5066973;28;19913;-76
2021/06/11 05:53:42;;;;;;;;;;;20.00;95.90;;;;;;5068749;28;20347;-76
2021/06/11 05:56:08;;;;;;;;;;;20.00;93.30;;;;;;5059831;28;19928;-76
2021/06/11 05:58:34;;;;;;;;;;;20.10;93.00;;;;;;5060395;28;20404;-75
2021/06/11 06:00:59;;;;;;;;;;;20.20;92.30;;;;;;5071850;28;19966;-76
2021/06/11 06:03:25;;;;;;;;;;;20.20;92.00;;;;;;5065090;28;20347;-76
2021/06/11 06:05:50;;;;;;;;;;;20.30;91.40;;;;;;5059949;28;20306;-76
2021/06/11 06:08:17;;;;;;;;;;;20.30;90.60;;;;;;5065845;28;19908;-76
2021/06/11 06:10:42;;;;;;;;;;;20.40;88.90;;;;;;5069058;28;19916;-76
2021/06/11 06:13:08;;;;;;;;;;;20.40;88.10;;;;;;5064844;28;19912;-76
2021/06/11 06:15:34;;;;;;;;;;;20.40;90.50;;;;;;5069371;28;19915;-76
2021/06/11 06:17:59;;;;;;;;;;;20.40;91.40;;;;;;5066720;28;19908;-74
2021/06/11 06:20:25;;;;;;;;;;;20.40;90.10;;;;;;5067612;28;19908;-74
2021/06/11 06:22:50;;;;;;;;;;;20.50;90.70;;;;;;5059822;28;20616;-75
2021/06/11 06:25:16;;;;;;;;;;;20.50;90.30;;;;;;5068044;28;20414;-75
2021/06/11 06:27:42;;;;;;;;;;;20.50;91.00;;;;;;5066764;28;20370;-76
2021/06/11 06:30:09;;;;;;;;;;;20.50;90.80;;;;;;5060705;28;19912;-76
2021/06/11 06:32:35;;;;;;;;;;;20.60;91.00;;;;;;5063660;28;19912;-76
2021/06/11 06:35:00;;;;;;;;;;;20.60;90.30;;;;;;5063319;28;19908;-76
2021/06/11 06:37:27;;;;;;;;;;;20.70;89.60;;;;;;5063527;28;19908;-76
2021/06/11 06:39:53;;;;;;;;;;;20.80;85.60;;;;;;5069899;28;19940;-76
2021/06/11 06:42:19;;;;;;;;;;;20.80;85.70;;;;;;5057288;28;19955;-76
2021/06/11 06:44:45;;;;;;;;;;;20.90;87.30;;;;;;5061847;28;20794;-76
2021/06/11 06:47:10;;;;;;;;;;;20.90;86.60;;;;;;5063826;28;20371;-76
2021/06/11 06:49:36;;;;;;;;;;;20.90;86.30;;;;;;5070048;28;20288;-74
2021/06/11 06:52:02;;;;;;;;;;;21.00;87.80;;;;;;5068755;28;19927;-74
2021/06/11 06:54:27;;;;;;;;;;;21.10;89.40;;;;;;5068606;28;20423;-75
2021/06/11 06:56:53;;;;;;;;;;;21.20;88.00;;;;;;5064654;28;19974;-76
2021/06/11 06:59:20;;;;;;;;;;;21.30;85.80;;;;;;5067292;28;19962;-76
2021/06/11 07:01:47;;;;;;;;;;;21.40;84.20;;;;;;5067423;28;19982;-76
2021/06/11 07:04:12;;;;;;;;;;;21.40;83.00;;;;;;5070436;28;19904;-75
2021/06/11 07:06:37;;;;;;;;;;;21.40;84.50;;;;;;5063251;28;19939;-76
2021/06/11 07:09:05;;;;;;;;;;;21.40;84.70;;;;;;5065285;28;20354;-75
2021/06/11 07:11:30;;;;;;;;;;;21.40;84.40;;;;;;5068028;28;20011;-76
2021/06/11 07:13:56;;;;;;;;;;;21.30;84.20;;;;;;5070429;28;20465;-76
2021/06/11 07:16:21;;;;;;;;;;;21.40;82.00;;;;;;5068147;28;19911;-76
2021/06/11 07:18:47;;;;;;;;;;;21.40;84.90;;;;;;5062947;28;20256;-76
2021/06/11 07:21:13;;;;;;;;;;;21.60;85.60;;;;;;5063151;28;20066;-75
2021/06/11 07:23:39;;;;;;;;;;;21.60;86.10;;;;;;5066921;28;19908;-75
2021/06/11 07:26:08;;;;;;;;;;;21.70;85.80;;;;;;5069826;28;20113;-76
2021/06/11 07:28:34;;;;;;;;;;;21.80;85.60;;;;;;5069656;28;19905;-76
2021/06/11 07:31:00;;;;;;;;;;;21.90;83.80;;;;;;5069864;28;19905;-76
2021/06/11 07:33:25;;;;;;;;;;;21.90;83.40;;;;;;5062781;28;20430;-75
2021/06/11 07:35:51;;;;;;;;;;;22.00;80.80;;;;;;5065067;28;19911;-76
2021/06/11 07:38:16;;;;;;;;;;;22.10;86.40;;;;;;5051549;28;19994;-76
2021/06/11 07:40:41;;;;;;;;;;;22.20;83.70;;;;;;5069272;28;19962;-76
2021/06/11 07:43:07;;;;;;;;;;;22.20;82.10;;;;;;5066007;28;19920;-76
2021/06/11 07:45:33;;;;;;;;;;;22.20;80.10;;;;;;5064004;28;19904;-76
2021/06/11 07:47:58;;;;;;;;;;;22.30;80.40;;;;;;5069511;28;19999;-76
2021/06/11 07:50:24;;;;;;;;;;;22.20;78.80;;;;;;5066406;28;19909;-75
2021/06/11 07:52:50;;;;;;;;;;;22.20;78.90;;;;;;5069397;28;19947;-76
2021/06/11 07:55:16;;;;;;;;;;;22.30;82.90;;;;;;5066274;28;19935;-76
2021/06/11 07:57:41;;;;;;;;;;;22.40;80.20;;;;;;5069089;28;20410;-76
2021/06/11 08:00:08;;;;;;;;;;;22.40;79.10;;;;;;5069380;28;19994;-76
2021/06/11 08:02:33;;;;;;;;;;;22.40;77.50;;;;;;5068883;28;19912;-76
2021/06/11 08:04:59;;;;;;;;;;;22.50;81.40;;;;;;5061620;28;19917;-75
2021/06/11 08:07:29;;;;;;;;;;;22.50;81.40;;;;;;5064938;28;19911;-76
2021/06/11 08:09:56;;;;;;;;;;;22.60;84.20;;;;;;5064190;28;19908;-76
2021/06/11 08:12:21;;;;;;;;;;;22.70;83.90;;;;;;5069016;28;19905;-76
2021/06/11 08:14:47;;;;;;;;;;;22.80;84.40;;;;;;5068176;28;20323;-76
2021/06/11 08:17:13;;;;;;;;;;;22.80;80.90;;;;;;5069131;28;19911;-75
2021/06/11 08:19:38;;;;;;;;;;;22.90;82.00;;;;;;5067242;28;19912;-76
2021/06/11 08:22:03;;;;;;;;;;;22.90;80.30;;;;;;5069124;28;20049;-76
2021/06/11 08:24:30;;;;;;;;;;;23.00;80.00;;;;;;5064936;28;20367;-76
2021/06/11 08:26:55;;;;;;;;;;;23.00;78.00;;;;;;5063195;28;19909;-76
2021/06/11 08:29:23;;;;;;;;;;;23.10;77.60;;;;;;5063511;28;19919;-76
2021/06/11 08:31:49;;;;;;;;;;;23.20;80.60;;;;;;5067405;28;19939;-76
2021/06/11 08:34:17;;;;;;;;;;;23.40;78.60;;;;;;5068780;28;20001;-76
2021/06/11 08:36:43;;;;;;;;;;;23.40;78.30;;;;;;5067742;28;20339;-76
2021/06/11 08:39:08;;;;;;;;;;;23.50;78.20;;;;;;5068700;28;20003;-76
2021/06/11 08:41:34;;;;;;;;;;;23.40;75.20;;;;;;5062812;28;19916;-76
2021/06/11 08:43:59;;;;;;;;;;;23.40;75.70;;;;;;5063469;28;19919;-75
2021/06/11 08:46:26;;;;;;;;;;;23.50;72.40;;;;;;5061926;28;20014;-76
2021/06/11 08:48:52;;;;;;;;;;;23.60;72.00;;;;;;5049893;28;20371;-76
2021/06/11 08:51:17;;;;;;;;;;;23.60;70.80;;;;;;5068539;28;19911;-76
2021/06/11 08:53:43;;;;;;;;;;;23.60;69.10;;;;;;5068413;28;20311;-76
2021/06/11 08:56:08;;;;;;;;;;;23.50;70.00;;;;;;5062431;28;19963;-76
2021/06/11 08:58:40;;;;;;;;;;;23.40;70.90;;;;;;5058481;28;19909;-76
2021/06/11 09:01:06;;;;;;;;;;;23.30;71.60;;;;;;5068561;28;19908;-76
2021/06/11 09:03:41;;;;;;;;;;;23.40;70.40;;;;;;5068401;28;19916;-76
2021/06/11 09:06:12;;;;;;;;;;;23.50;71.10;;;;;;5065336;28;19924;-76
2021/06/11 09:08:38;;;;;;;;;;;23.60;65.50;;;;;;5066168;28;20309;-76
2021/06/11 09:11:12;;;;;;;;;;;23.80;65.50;;;;;;5068325;28;20405;-76
2021/06/11 09:13:40;;;;;;;;;;;24.00;65.90;;;;;;5068149;28;19911;-76
2021/06/11 09:16:06;;;;;;;;;;;24.20;66.10;;;;;;5057713;28;19908;-77
2021/06/11 09:18:31;;;;;;;;;;;24.30;67.10;;;;;;5067186;28;19957;-76
2021/06/11 09:20:56;;;;;;;;;;;24.50;66.70;;;;;;5068515;28;20379;-76
2021/06/11 09:23:22;;;;;;;;;;;24.50;66.30;;;;;;5050246;28;20387;-77
2021/06/11 09:25:49;;;;;;;;;;;24.50;62.40;;;;;;5059398;28;19919;-76
2021/06/11 09:28:16;;;;;;;;;;;24.30;62.10;;;;;;5066903;28;19909;-77
2021/06/11 09:30:41;;;;;;;;;;;24.20;60.80;;;;;;5071544;28;19908;-76
2021/06/11 09:33:15;;;;;;;;;;;24.10;62.10;;;;;;5065718;28;20259;-76
2021/06/11 09:35:40;;;;;;;;;;;24.10;64.30;;;;;;5064596;28;19904;-76
2021/06/11 09:38:08;;;;;;;;;;;24.20;60.80;;;;;;5071915;28;19905;-76
2021/06/11 09:40:34;;;;;;;;;;;24.40;60.20;;;;;;5071661;28;19904;-76
2021/06/11 09:43:03;;;;;;;;;;;24.50;59.80;;;;;;5071644;28;20042;-76
2021/06/11 09:45:28;;;;;;;;;;;24.60;61.50;;;;;;5068846;28;19920;-76
2021/06/11 09:47:54;;;;;;;;;;;24.60;58.90;;;;;;5071465;28;19912;-76
2021/06/11 09:50:27;;;;;;;;;;;24.70;58.20;;;;;;5060053;28;20524;-76
2021/06/11 09:52:57;;;;;;;;;;;24.80;56.00;;;;;;5059083;28;19904;-76
2021/06/11 09:55:27;;;;;;;;;;;24.90;55.30;;;;;;5069291;28;19940;-76
2021/06/11 09:58:11;;;;;;;;;;;24.90;57.30;;;;;;5071524;28;19908;-76
2021/06/11 10:00:38;;;;;;;;;;;25.00;57.90;;;;;;5071193;28;20251;-76
2021/06/11 10:03:45;;;;;;;;;;;25.10;57.80;;;;;;5071544;28;19915;-76
2021/06/11 10:06:12;;;;;;;;;;;25.20;56.10;;;;;;5058519;28;19909;-76
2021/06/11 10:08:38;;;;;;;;;;;25.20;57.40;;;;;;5069071;28;19908;-76
2021/06/11 10:11:05;;;;;;;;;;;25.30;58.40;;;;;;5071044;28;20389;-76
2021/06/11 10:13:31;;;;;;;;;;;25.30;57.50;;;;;;5070831;28;20511;-77
2021/06/11 10:15:57;;;;;;;;;;;25.40;56.20;;;;;;5068964;28;20098;-77
2021/06/11 10:18:23;;;;;;;;;;;25.40;55.90;;;;;;5068895;28;19904;-76
2021/06/11 10:20:49;;;;;;;;;;;25.40;56.50;;;;;;5062564;28;19958;-76
2021/06/11 10:23:17;;;;;;;;;;;25.50;53.90;;;;;;5067825;28;19918;-76
2021/06/11 10:25:44;;;;;;;;;;;25.50;55.50;;;;;;5061646;28;19909;-76
2021/06/11 10:28:18;;;;;;;;;;;25.60;55.70;;;;;;5070161;28;19978;-77
2021/06/11 10:30:43;;;;;;;;;;;25.60;56.60;;;;;;5070779;28;19908;-77
2021/06/11 10:33:09;;;;;;;;;;;25.70;54.30;;;;;;5071041;28;20260;-76
2021/06/11 10:35:35;;;;;;;;;;;25.80;55.00;;;;;;5070484;28;19909;-76
2021/06/11 10:38:01;;;;;;;;;;;25.80;55.30;;;;;;5068705;28;19912;-76
2021/06/11 10:40:38;;;;;;;;;;;25.90;56.80;;;;;;5065071;28;19911;-77
2021/06/11 10:43:23;;;;;;;;;;;26.00;54.10;;;;;;5058670;28;20018;-77
2021/06/11 10:45:50;;;;;;;;;;;26.30;55.40;;;;;;5068148;28;20477;-77
2021/06/11 10:48:16;;;;;;;;;;;26.60;54.10;;;;;;5059213;28;19913;-77
2021/06/11 10:50:42;;;;;;;;;;;26.80;52.80;;;;;;5064800;28;19970;-77
2021/06/11 10:53:10;;;;;;;;;;;27.00;53.00;;;;;;5065522;28;19991;-77
2021/06/11 10:55:46;;;;;;;;;;;27.20;53.30;;;;;;5061197;28;19970;-77
2021/06/11 10:58:11;;;;;;;;;;;27.40;51.60;;;;;;5062405;28;19981;-83
2021/06/11 11:00:38;;;;;;;;;;;27.10;53.50;;;;;;5067768;28;19913;-80
2021/06/11 11:03:05;;;;;;;;;;;27.10;54.20;;;;;;5060974;28;20413;-76
2021/06/11 11:05:34;;;;;;;;;;;27.30;53.10;;;;;;5067596;28;19915;-77
2021/06/11 11:08:01;;;;;;;;;;;27.20;54.00;;;;;;5069779;28;19911;-76
2021/06/11 11:10:50;;;;;;;;;;;27.00;54.70;;;;;;5025912;28;19920;-77
2021/06/11 11:13:16;;;;;;;;;;;27.10;53.90;;;;;;5063645;28;19912;-76
2021/06/11 11:15:47;;;;;;;;;;;27.30;52.10;;;;;;5062921;28;20291;-77
2021/06/11 11:18:14;;;;;;;;;;;27.50;51.70;;;;;;5063983;28;19904;-77
2021/06/11 11:20:40;;;;;;;;;;;27.90;50.60;;;;;;5067333;28;19909;-77
2021/06/11 11:23:10;;;;;;;;;;;28.30;51.20;;;;;;5065896;28;20294;-77
2021/06/11 11:25:36;;;;;;;;;;;28.80;49.70;;;;;;5059244;28;19915;-77
2021/06/11 11:28:02;;;;;;;;;;;29.20;48.30;;;;;;5058423;28;19991;-77
2021/06/11 11:30:28;;;;;;;;;;;29.10;49.30;;;;;;5068506;28;20415;-76
2021/06/11 11:32:58;;;;;;;;;;;29.30;48.90;;;;;;5068354;28;19904;-77
2021/06/11 11:35:28;;;;;;;;;;;29.60;48.80;;;;;;5063361;28;19909;-77
2021/06/11 11:37:55;;;;;;;;;;;29.40;47.80;;;;;;5060463;28;19905;-77
2021/06/11 11:40:23;;;;;;;;;;;29.10;49.90;;;;;;5063646;28;19909;-77
2021/06/11 11:42:48;;;;;;;;;;;29.30;48.60;;;;;;5065588;28;19912;-77
2021/06/11 11:45:14;;;;;;;;;;;29.80;49.40;;;;;;5060993;28;19912;-77
2021/06/11 11:47:39;;;;;;;;;;;29.70;48.80;;;;;;5046849;28;19912;-77
2021/06/11 11:50:05;;;;;;;;;;;29.20;48.90;;;;;;5063507;28;19940;-76
2021/06/11 11:52:31;;;;;;;;;;;29.30;50.90;;;;;;5057932;28;19908;-74
2021/06/11 11:54:57;;;;;;;;;;;30.40;47.80;;;;;;5059982;28;19955;-74
2021/06/11 11:57:22;;;;;;;;;;;30.70;46.60;;;;;;5064906;28;20374;-74
2021/06/11 11:59:48;;;;;;;;;;;30.00;45.90;;;;;;5067815;28;19939;-74
2021/06/11 12:02:14;;;;;;;;;;;29.20;47.10;;;;;;5060402;28;19996;-77
2021/06/11 12:04:39;;;;;;;;;;;28.80;47.60;;;;;;5068992;28;19987;-76
2021/06/11 12:07:05;;;;;;;;;;;29.60;48.80;;;;;;5062786;28;19996;-76
2021/06/11 12:09:31;;;;;;;;;;;30.80;44.10;;;;;;5061416;28;20113;-77
2021/06/11 12:11:57;;;;;;;;;;;31.90;42.60;;;;;;5062406;28;19908;-76
2021/06/11 12:14:22;;;;;;;;;;;33.00;41.60;;;;;;5064839;28;20428;-74
2021/06/11 12:16:48;;;;;;;;;;;33.70;40.40;;;;;;5060798;28;20010;-74
2021/06/11 12:19:13;;;;;;;;;;;34.60;39.30;;;;;;5063276;28;19947;-73
2021/06/11 12:21:38;;;;;;;;;;;35.20;39.50;;;;;;5067875;28;19990;-74
2021/06/11 12:24:04;;;;;;;;;;;35.80;37.60;;;;;;5052550;28;19914;-74
2021/06/11 12:26:30;;;;;;;;;;;36.30;35.90;;;;;;5067743;28;19904;-74
2021/06/11 12:28:56;;;;;;;;;;;36.20;35.60;;;;;;5069159;28;20718;-74
2021/06/11 12:31:22;;;;;;;;;;;36.40;35.40;;;;;;5069132;28;19911;-77
2021/06/11 12:33:47;;;;;;;;;;;35.50;36.70;;;;;;5065033;28;19916;-74
2021/06/11 12:36:16;;;;;;;;;;;35.90;36.60;;;;;;5065124;28;19909;-74
2021/06/11 12:38:41;;;;;;;;;;;35.40;36.00;;;;;;5067631;28;19912;-74
2021/06/11 12:41:09;;;;;;;;;;;34.30;37.40;;;;;;5065047;28;19908;-74
2021/06/11 12:46:19;;;;;;;;;;;33.00;40.10;;;;;;5052424;28;19920;-74
2021/06/11 12:48:45;;;;;;;;;;;34.30;38.60;;;;;;5063367;28;19909;-74
2021/06/11 12:51:11;;;;;;;;;;;35.20;36.50;;;;;;5069122;28;19904;-74
2021/06/11 12:53:36;;;;;;;;;;;36.00;35.90;;;;;;5050739;28;19934;-74
2021/06/11 12:56:01;;;;;;;;;;;36.40;35.10;;;;;;5065724;28;20367;-75
2021/06/11 12:58:27;;;;;;;;;;;36.90;33.40;;;;;;5063192;28;20367;-74
2021/06/11 13:00:52;;;;;;;;;;;37.40;32.20;;;;;;5068918;28;19958;-74
2021/06/11 13:03:18;;;;;;;;;;;37.40;33.10;;;;;;5068836;28;19912;-74
2021/06/11 13:05:43;;;;;;;;;;;37.70;32.00;;;;;;5070177;28;20426;-74
2021/06/11 13:08:16;;;;;;;;;;;37.30;32.30;;;;;;5072597;28;20049;-74
2021/06/11 13:10:41;;;;;;;;;;;37.60;33.80;;;;;;5072654;28;19912;-74
2021/06/11 13:13:07;;;;;;;;;;;37.90;32.00;;;;;;5072529;28;19904;-75
2021/06/11 13:15:32;;;;;;;;;;;36.60;32.60;;;;;;5062421;28;19905;-75
2021/06/11 13:17:57;;;;;;;;;;;35.90;36.10;;;;;;5072276;28;20007;-75
2021/06/11 13:20:23;;;;;;;;;;;36.20;35.20;;;;;;5072531;28;20043;-75
2021/06/11 13:22:48;;;;;;;;;;;36.80;32.80;;;;;;5072150;28;19912;-75
2021/06/11 13:25:14;;;;;;;;;;;37.00;34.30;;;;;;5070468;28;19908;-76
2021/06/11 13:27:45;;;;;;;;;;;37.40;32.80;;;;;;5072208;28;19908;-76
2021/06/11 13:30:13;;;;;;;;;;;37.70;32.30;;;;;;5070337;28;20317;-75
2021/06/11 13:32:38;;;;;;;;;;;37.70;31.50;;;;;;5064728;28;19917;-75
2021/06/11 13:35:04;;;;;;;;;;;38.00;31.10;;;;;;5072325;28;20299;-75
2021/06/11 13:37:29;;;;;;;;;;;38.20;32.60;;;;;;5069794;28;19904;-76
2021/06/11 13:39:55;;;;;;;;;;;38.00;32.60;;;;;;5059558;28;19955;-78
2021/06/11 13:42:20;;;;;;;;;;;38.30;30.70;;;;;;5067319;28;19951;-76
2021/06/11 13:44:46;;;;;;;;;;;38.60;31.40;;;;;;5067048;28;19939;-82
2021/06/11 13:47:11;;;;;;;;;;;38.40;31.10;;;;;;5067696;28;19913;-76
2021/06/11 13:49:37;;;;;;;;;;;38.30;30.40;;;;;;5064195;28;19908;-76
2021/06/11 13:52:03;;;;;;;;;;;38.40;32.00;;;;;;5064299;28;19916;-76
2021/06/11 13:54:28;;;;;;;;;;;38.30;32.80;;;;;;5062346;28;19909;-76
2021/06/11 13:56:54;;;;;;;;;;;38.10;32.70;;;;;;5060264;28;19920;-75
2021/06/11 13:59:19;;;;;;;;;;;37.10;33.60;;;;;;5065751;28;19908;-76
2021/06/11 14:01:44;;;;;;;;;;;36.70;32.80;;;;;;5065079;28;19968;-76
2021/06/11 14:04:10;;;;;;;;;;;37.30;32.20;;;;;;5067408;28;20421;-76
2021/06/11 14:06:35;;;;;;;;;;;37.60;32.60;;;;;;5058066;28;19908;-76
2021/06/11 14:09:01;;;;;;;;;;;38.10;32.90;;;;;;5071689;28;19908;-76
2021/06/11 14:11:26;;;;;;;;;;;38.50;32.10;;;;;;5066319;28;19909;-76
2021/06/11 14:13:51;;;;;;;;;;;37.40;33.00;;;;;;5059724;28;20375;-76
2021/06/11 14:16:17;;;;;;;;;;;36.50;34.50;;;;;;5065110;28;19998;-76